sensor_id;sensor_type;location;lat;lon;timestamp;P1;durP1;ratioP1;P2;durP2;ratioP2
23252;SDS011;11795;47.054;15.408;2023-03-26T00:00:00;4.1;;;3.7;;
23252;SDS011;11795;47.054;15.408;2023-03-26T00:02:00;4.1;;;3.7;;
23252;SDS011;11795;47.054;15.408;2023-03-26T00:04:01;3.7;;;3.3;;
23252;SDS011;11795;47.054;15.408;2023-03-26T00:06:02;3.7;;;3.3;;
23252;SDS011;11795;47.054;15.408;2023-03-26T00:08:00;3.7;;;3.3;;
23252;SDS011;11795;47.054;15.408;2023-03-26T00:10:00;3.6;;;3.2;;
23252;SDS011;11795;47.054;15.408;2023-03-26T00:12:00;3.6;;;3.2;;
23252;SDS011;11795;47.054;15.408;2023-03-26T00:14:01;4.1;;;3.3;;
23252;SDS011;11795;47.054;15.408;2023-03-26T00:16:00;4.1;;;3.3;;
23252;SDS011;11795;47.054;15.408;2023-03-26T00:18:00;4.1;;;3.3;;
23252;SDS011;11795;47.054;15.408;2023-03-26T00:20:00;3.8;;;3.2;;
23252;SDS011;11795;47.054;15.408;2023-03-26T00:22:02;3.8;;;3.2;;
23252;SDS011;11795;47.054;15.408;2023-03-26T00:24:04;3.1;;;2.8;;
23252;SDS011;11795;47.054;15.408;2023-03-26T00:26:00;3.1;;;2.8;;
23252;SDS011;11795;47.054;15.408;2023-03-26T00:28:00;3.1;;;2.8;;
23252;SDS011;11795;47.054;15.408;2023-03-26T00:30:00;3.4;;;2.9;;
23252;SDS011;11795;47.054;15.408;2023-03-26T00:32:00;3.4;;;2.9;;
23252;SDS011;11795;47.054;15.408;2023-03-26T00:34:02;3.0;;;2.7;;
23252;SDS011;11795;47.054;15.408;2023-03-26T00:36:00;3.0;;;2.7;;
23252;SDS011;11795;47.054;15.408;2023-03-26T00:38:00;3.0;;;2.7;;
23252;SDS011;11795;47.054;15.408;2023-03-26T00:40:04;4.0;;;3.3;;
23252;SDS011;11795;47.054;15.408;2023-03-26T00:42:05;4.0;;;3.3;;
23252;SDS011;11795;47.054;15.408;2023-03-26T00:44:00;4.4;;;3.3;;
23252;SDS011;11795;47.054;15.408;2023-03-26T00:46:01;4.4;;;3.3;;
23252;SDS011;11795;47.054;15.408;2023-03-26T00:48:00;4.4;;;3.3;;
23252;SDS011;11795;47.054;15.408;2023-03-26T00:50:00;4.0;;;3.1;;
23252;SDS011;11795;47.054;15.408;2023-03-26T00:52:02;4.0;;;3.1;;
23252;SDS011;11795;47.054;15.408;2023-03-26T00:54:00;4.1;;;3.3;;
23252;SDS011;11795;47.054;15.408;2023-03-26T00:56:00;4.1;;;3.3;;
23252;SDS011;11795;47.054;15.408;2023-03-26T00:58:00;4.1;;;3.3;;
23252;SDS011;11795;47.054;15.408;2023-03-26T01:00:11;3.5;;;2.8;;
23252;SDS011;11795;47.054;15.408;2023-03-26T01:02:00;3.5;;;2.8;;
23252;SDS011;11795;47.054;15.408;2023-03-26T01:06:04;2.4;;;2.1;;
23252;SDS011;11795;47.054;15.408;2023-03-26T01:08:00;2.4;;;2.1;;
23252;SDS011;11795;47.054;15.408;2023-03-26T01:10:00;3.3;;;2.0;;
23252;SDS011;11795;47.054;15.408;2023-03-26T01:12:01;3.3;;;2.0;;
23252;SDS011;11795;47.054;15.408;2023-03-26T01:14:01;3.4;;;2.6;;
23252;SDS011;11795;47.054;15.408;2023-03-26T01:16:01;3.4;;;2.6;;
23252;SDS011;11795;47.054;15.408;2023-03-26T01:18:03;3.4;;;2.6;;
23252;SDS011;11795;47.054;15.408;2023-03-26T01:20:12;4.0;;;2.4;;
23252;SDS011;11795;47.054;15.408;2023-03-26T01:22:00;4.0;;;2.4;;
23252;SDS011;11795;47.054;15.408;2023-03-26T01:24:00;3.6;;;2.7;;
23252;SDS011;11795;47.054;15.408;2023-03-26T01:26:02;3.6;;;2.7;;
23252;SDS011;11795;47.054;15.408;2023-03-26T01:28:00;3.6;;;2.7;;
23252;SDS011;11795;47.054;15.408;2023-03-26T01:30:01;2.8;;;2.5;;
23252;SDS011;11795;47.054;15.408;2023-03-26T01:32:02;2.8;;;2.5;;
23252;SDS011;11795;47.054;15.408;2023-03-26T01:34:03;3.6;;;2.6;;
23252;SDS011;11795;47.054;15.408;2023-03-26T01:36:00;3.6;;;2.6;;
23252;SDS011;11795;47.054;15.408;2023-03-26T01:38:01;3.6;;;2.6;;
23252;SDS011;11795;47.054;15.408;2023-03-26T01:40:06;3.7;;;2.7;;
23252;SDS011;11795;47.054;15.408;2023-03-26T01:42:01;3.7;;;2.7;;
23252;SDS011;11795;47.054;15.408;2023-03-26T01:44:02;3.2;;;2.5;;
23252;SDS011;11795;47.054;15.408;2023-03-26T01:46:01;3.2;;;2.5;;
23252;SDS011;11795;47.054;15.408;2023-03-26T01:48:00;3.2;;;2.5;;
23252;SDS011;11795;47.054;15.408;2023-03-26T01:50:00;2.8;;;2.5;;
23252;SDS011;11795;47.054;15.408;2023-03-26T01:52:00;2.8;;;2.5;;
23252;SDS011;11795;47.054;15.408;2023-03-26T01:54:00;3.1;;;2.3;;
23252;SDS011;11795;47.054;15.408;2023-03-26T01:56:04;3.1;;;2.3;;
23252;SDS011;11795;47.054;15.408;2023-03-26T01:58:02;3.1;;;2.3;;
23252;SDS011;11795;47.054;15.408;2023-03-26T02:00:05;3.4;;;2.4;;
23252;SDS011;11795;47.054;15.408;2023-03-26T02:02:03;3.4;;;2.4;;
23252;SDS011;11795;47.054;15.408;2023-03-26T02:04:01;3.5;;;2.5;;
23252;SDS011;11795;47.054;15.408;2023-03-26T02:06:01;3.5;;;2.5;;
23252;SDS011;11795;47.054;15.408;2023-03-26T02:08:02;3.5;;;2.5;;
23252;SDS011;11795;47.054;15.408;2023-03-26T02:10:02;3.5;;;2.7;;
23252;SDS011;11795;47.054;15.408;2023-03-26T02:12:02;3.5;;;2.7;;
23252;SDS011;11795;47.054;15.408;2023-03-26T02:14:00;4.3;;;3.0;;
23252;SDS011;11795;47.054;15.408;2023-03-26T02:16:01;4.3;;;3.0;;
23252;SDS011;11795;47.054;15.408;2023-03-26T02:18:01;4.3;;;3.0;;
23252;SDS011;11795;47.054;15.408;2023-03-26T02:20:06;3.9;;;3.2;;
23252;SDS011;11795;47.054;15.408;2023-03-26T02:22:01;3.9;;;3.2;;
23252;SDS011;11795;47.054;15.408;2023-03-26T02:24:02;3.9;;;3.1;;
23252;SDS011;11795;47.054;15.408;2023-03-26T02:26:01;3.9;;;3.1;;
23252;SDS011;11795;47.054;15.408;2023-03-26T02:28:00;3.9;;;3.1;;
23252;SDS011;11795;47.054;15.408;2023-03-26T02:30:01;3.7;;;3.0;;
23252;SDS011;11795;47.054;15.408;2023-03-26T02:32:01;3.7;;;3.0;;
23252;SDS011;11795;47.054;15.408;2023-03-26T02:34:00;4.9;;;3.3;;
23252;SDS011;11795;47.054;15.408;2023-03-26T02:36:00;4.9;;;3.3;;
23252;SDS011;11795;47.054;15.408;2023-03-26T02:38:01;4.9;;;3.3;;
23252;SDS011;11795;47.054;15.408;2023-03-26T02:40:00;3.6;;;3.2;;
23252;SDS011;11795;47.054;15.408;2023-03-26T02:42:00;3.6;;;3.2;;
23252;SDS011;11795;47.054;15.408;2023-03-26T02:44:00;4.5;;;2.8;;
23252;SDS011;11795;47.054;15.408;2023-03-26T02:46:00;4.5;;;2.8;;
23252;SDS011;11795;47.054;15.408;2023-03-26T02:48:00;4.5;;;2.8;;
23252;SDS011;11795;47.054;15.408;2023-03-26T02:50:00;3.4;;;2.9;;
23252;SDS011;11795;47.054;15.408;2023-03-26T02:52:00;3.4;;;2.9;;
23252;SDS011;11795;47.054;15.408;2023-03-26T02:54:00;3.6;;;3.1;;
23252;SDS011;11795;47.054;15.408;2023-03-26T02:56:00;3.6;;;3.1;;
23252;SDS011;11795;47.054;15.408;2023-03-26T02:58:00;3.6;;;3.1;;
23252;SDS011;11795;47.054;15.408;2023-03-26T03:00:10;4.2;;;2.8;;
23252;SDS011;11795;47.054;15.408;2023-03-26T03:02:00;4.2;;;2.8;;
23252;SDS011;11795;47.054;15.408;2023-03-26T03:04:00;3.7;;;2.9;;
23252;SDS011;11795;47.054;15.408;2023-03-26T03:06:00;3.7;;;2.9;;
23252;SDS011;11795;47.054;15.408;2023-03-26T03:08:00;3.7;;;2.9;;
23252;SDS011;11795;47.054;15.408;2023-03-26T03:10:01;3.6;;;3.0;;
23252;SDS011;11795;47.054;15.408;2023-03-26T03:12:00;3.6;;;3.0;;
23252;SDS011;11795;47.054;15.408;2023-03-26T03:14:00;3.8;;;3.0;;
23252;SDS011;11795;47.054;15.408;2023-03-26T03:16:00;3.8;;;3.0;;
23252;SDS011;11795;47.054;15.408;2023-03-26T03:18:00;3.8;;;3.0;;
23252;SDS011;11795;47.054;15.408;2023-03-26T03:20:00;4.3;;;2.9;;
23252;SDS011;11795;47.054;15.408;2023-03-26T03:22:00;4.3;;;2.9;;
23252;SDS011;11795;47.054;15.408;2023-03-26T03:24:00;3.8;;;3.0;;
23252;SDS011;11795;47.054;15.408;2023-03-26T03:26:01;3.8;;;3.0;;
23252;SDS011;11795;47.054;15.408;2023-03-26T03:28:00;3.8;;;3.0;;
23252;SDS011;11795;47.054;15.408;2023-03-26T03:30:00;2.5;;;2.3;;
23252;SDS011;11795;47.054;15.408;2023-03-26T03:32:00;2.5;;;2.3;;
23252;SDS011;11795;47.054;15.408;2023-03-26T03:34:00;3.1;;;2.6;;
23252;SDS011;11795;47.054;15.408;2023-03-26T03:36:00;3.1;;;2.6;;
23252;SDS011;11795;47.054;15.408;2023-03-26T03:38:00;3.1;;;2.6;;
23252;SDS011;11795;47.054;15.408;2023-03-26T03:40:00;2.4;;;2.0;;
23252;SDS011;11795;47.054;15.408;2023-03-26T03:42:00;2.4;;;2.0;;
23252;SDS011;11795;47.054;15.408;2023-03-26T03:44:00;3.2;;;2.4;;
23252;SDS011;11795;47.054;15.408;2023-03-26T03:46:00;3.2;;;2.4;;
23252;SDS011;11795;47.054;15.408;2023-03-26T03:48:00;3.2;;;2.4;;
23252;SDS011;11795;47.054;15.408;2023-03-26T03:50:00;2.6;;;2.2;;
23252;SDS011;11795;47.054;15.408;2023-03-26T03:52:00;2.6;;;2.2;;
23252;SDS011;11795;47.054;15.408;2023-03-26T03:54:00;2.5;;;2.0;;
23252;SDS011;11795;47.054;15.408;2023-03-26T03:56:01;2.5;;;2.0;;
23252;SDS011;11795;47.054;15.408;2023-03-26T03:58:00;2.5;;;2.0;;
23252;SDS011;11795;47.054;15.408;2023-03-26T04:00:00;3.5;;;2.4;;
23252;SDS011;11795;47.054;15.408;2023-03-26T04:02:00;3.5;;;2.4;;
23252;SDS011;11795;47.054;15.408;2023-03-26T04:04:00;4.2;;;2.7;;
23252;SDS011;11795;47.054;15.408;2023-03-26T04:06:00;4.2;;;2.7;;
23252;SDS011;11795;47.054;15.408;2023-03-26T04:08:00;4.2;;;2.7;;
23252;SDS011;11795;47.054;15.408;2023-03-26T04:10:02;3.2;;;2.3;;
23252;SDS011;11795;47.054;15.408;2023-03-26T04:12:00;3.2;;;2.3;;
23252;SDS011;11795;47.054;15.408;2023-03-26T04:14:00;3.5;;;2.2;;
23252;SDS011;11795;47.054;15.408;2023-03-26T04:16:00;3.5;;;2.2;;
23252;SDS011;11795;47.054;15.408;2023-03-26T04:18:00;3.5;;;2.2;;
23252;SDS011;11795;47.054;15.408;2023-03-26T04:20:10;2.6;;;2.1;;
23252;SDS011;11795;47.054;15.408;2023-03-26T04:22:01;2.6;;;2.1;;
23252;SDS011;11795;47.054;15.408;2023-03-26T04:24:01;2.5;;;2.3;;
23252;SDS011;11795;47.054;15.408;2023-03-26T04:26:04;2.5;;;2.3;;
23252;SDS011;11795;47.054;15.408;2023-03-26T04:28:00;2.5;;;2.3;;
23252;SDS011;11795;47.054;15.408;2023-03-26T04:30:00;4.5;;;2.3;;
23252;SDS011;11795;47.054;15.408;2023-03-26T04:32:07;4.5;;;2.3;;
23252;SDS011;11795;47.054;15.408;2023-03-26T04:34:03;3.3;;;2.1;;
23252;SDS011;11795;47.054;15.408;2023-03-26T04:36:01;3.3;;;2.1;;
23252;SDS011;11795;47.054;15.408;2023-03-26T04:38:00;3.3;;;2.1;;
23252;SDS011;11795;47.054;15.408;2023-03-26T04:40:10;3.2;;;2.1;;
23252;SDS011;11795;47.054;15.408;2023-03-26T04:42:00;3.2;;;2.1;;
23252;SDS011;11795;47.054;15.408;2023-03-26T04:44:01;3.3;;;2.3;;
23252;SDS011;11795;47.054;15.408;2023-03-26T04:46:02;3.3;;;2.3;;
23252;SDS011;11795;47.054;15.408;2023-03-26T04:48:01;3.3;;;2.3;;
23252;SDS011;11795;47.054;15.408;2023-03-26T04:50:00;2.8;;;2.4;;
23252;SDS011;11795;47.054;15.408;2023-03-26T04:52:00;2.8;;;2.4;;
23252;SDS011;11795;47.054;15.408;2023-03-26T04:54:01;3.0;;;2.3;;
23252;SDS011;11795;47.054;15.408;2023-03-26T04:56:02;3.0;;;2.3;;
23252;SDS011;11795;47.054;15.408;2023-03-26T04:58:03;3.0;;;2.3;;
23252;SDS011;11795;47.054;15.408;2023-03-26T05:00:02;2.1;;;1.9;;
23252;SDS011;11795;47.054;15.408;2023-03-26T05:02:01;2.1;;;1.9;;
23252;SDS011;11795;47.054;15.408;2023-03-26T05:04:00;3.4;;;2.2;;
23252;SDS011;11795;47.054;15.408;2023-03-26T05:06:00;3.4;;;2.2;;
23252;SDS011;11795;47.054;15.408;2023-03-26T05:08:00;3.4;;;2.2;;
23252;SDS011;11795;47.054;15.408;2023-03-26T05:10:03;2.6;;;2.2;;
23252;SDS011;11795;47.054;15.408;2023-03-26T05:12:00;2.6;;;2.2;;
23252;SDS011;11795;47.054;15.408;2023-03-26T05:14:00;4.5;;;3.1;;
23252;SDS011;11795;47.054;15.408;2023-03-26T05:16:00;4.5;;;3.1;;
23252;SDS011;11795;47.054;15.408;2023-03-26T05:18:00;4.5;;;3.1;;
23252;SDS011;11795;47.054;15.408;2023-03-26T05:20:00;3.9;;;3.4;;
23252;SDS011;11795;47.054;15.408;2023-03-26T05:22:01;3.9;;;3.4;;
23252;SDS011;11795;47.054;15.408;2023-03-26T05:24:01;5.1;;;2.8;;
23252;SDS011;11795;47.054;15.408;2023-03-26T05:26:00;5.1;;;2.8;;
23252;SDS011;11795;47.054;15.408;2023-03-26T05:28:00;5.1;;;2.8;;
23252;SDS011;11795;47.054;15.408;2023-03-26T05:30:00;3.5;;;2.8;;
23252;SDS011;11795;47.054;15.408;2023-03-26T05:32:00;3.5;;;2.8;;
23252;SDS011;11795;47.054;15.408;2023-03-26T05:34:00;3.5;;;2.5;;
23252;SDS011;11795;47.054;15.408;2023-03-26T05:36:00;3.5;;;2.5;;
23252;SDS011;11795;47.054;15.408;2023-03-26T05:38:00;3.5;;;2.5;;
23252;SDS011;11795;47.054;15.408;2023-03-26T05:40:00;4.2;;;2.5;;
23252;SDS011;11795;47.054;15.408;2023-03-26T05:42:00;4.2;;;2.5;;
23252;SDS011;11795;47.054;15.408;2023-03-26T05:44:00;3.9;;;2.4;;
23252;SDS011;11795;47.054;15.408;2023-03-26T05:46:00;3.9;;;2.4;;
23252;SDS011;11795;47.054;15.408;2023-03-26T05:48:00;3.9;;;2.4;;
23252;SDS011;11795;47.054;15.408;2023-03-26T05:50:00;3.1;;;2.5;;
23252;SDS011;11795;47.054;15.408;2023-03-26T05:52:00;3.1;;;2.5;;
23252;SDS011;11795;47.054;15.408;2023-03-26T05:54:00;3.0;;;2.6;;
23252;SDS011;11795;47.054;15.408;2023-03-26T05:56:01;3.0;;;2.6;;
23252;SDS011;11795;47.054;15.408;2023-03-26T05:58:00;3.0;;;2.6;;
23252;SDS011;11795;47.054;15.408;2023-03-26T06:00:00;5.2;;;3.2;;
23252;SDS011;11795;47.054;15.408;2023-03-26T06:02:00;5.2;;;3.2;;
23252;SDS011;11795;47.054;15.408;2023-03-26T06:04:00;3.7;;;2.9;;
23252;SDS011;11795;47.054;15.408;2023-03-26T06:06:00;3.7;;;2.9;;
23252;SDS011;11795;47.054;15.408;2023-03-26T06:08:00;3.7;;;2.9;;
23252;SDS011;11795;47.054;15.408;2023-03-26T06:10:00;5.4;;;4.4;;
23252;SDS011;11795;47.054;15.408;2023-03-26T06:12:00;5.4;;;4.4;;
23252;SDS011;11795;47.054;15.408;2023-03-26T06:14:00;5.2;;;4.5;;
23252;SDS011;11795;47.054;15.408;2023-03-26T06:16:00;5.2;;;4.5;;
23252;SDS011;11795;47.054;15.408;2023-03-26T06:18:00;5.2;;;4.5;;
23252;SDS011;11795;47.054;15.408;2023-03-26T06:20:00;4.8;;;4.0;;
23252;SDS011;11795;47.054;15.408;2023-03-26T06:22:00;4.8;;;4.0;;
23252;SDS011;11795;47.054;15.408;2023-03-26T06:24:00;5.1;;;4.1;;
23252;SDS011;11795;47.054;15.408;2023-03-26T06:26:00;5.1;;;4.1;;
23252;SDS011;11795;47.054;15.408;2023-03-26T06:28:00;5.1;;;4.1;;
23252;SDS011;11795;47.054;15.408;2023-03-26T06:30:00;4.9;;;4.1;;
23252;SDS011;11795;47.054;15.408;2023-03-26T06:32:00;4.9;;;4.1;;
23252;SDS011;11795;47.054;15.408;2023-03-26T06:34:00;8.4;;;7.5;;
23252;SDS011;11795;47.054;15.408;2023-03-26T06:36:00;8.4;;;7.5;;
23252;SDS011;11795;47.054;15.408;2023-03-26T06:38:00;8.4;;;7.5;;
23252;SDS011;11795;47.054;15.408;2023-03-26T06:40:00;7.3;;;6.1;;
23252;SDS011;11795;47.054;15.408;2023-03-26T06:42:00;7.3;;;6.1;;
23252;SDS011;11795;47.054;15.408;2023-03-26T06:44:00;5.8;;;5.1;;
23252;SDS011;11795;47.054;15.408;2023-03-26T06:46:00;5.8;;;5.1;;
23252;SDS011;11795;47.054;15.408;2023-03-26T06:48:00;5.8;;;5.1;;
23252;SDS011;11795;47.054;15.408;2023-03-26T06:50:00;6.6;;;6.0;;
23252;SDS011;11795;47.054;15.408;2023-03-26T06:52:02;6.6;;;6.0;;
23252;SDS011;11795;47.054;15.408;2023-03-26T06:54:00;5.3;;;4.2;;
23252;SDS011;11795;47.054;15.408;2023-03-26T06:56:01;5.3;;;4.2;;
23252;SDS011;11795;47.054;15.408;2023-03-26T06:58:00;5.3;;;4.2;;
23252;SDS011;11795;47.054;15.408;2023-03-26T07:00:00;4.3;;;3.9;;
23252;SDS011;11795;47.054;15.408;2023-03-26T07:02:00;4.3;;;3.9;;
23252;SDS011;11795;47.054;15.408;2023-03-26T07:04:00;4.0;;;3.6;;
23252;SDS011;11795;47.054;15.408;2023-03-26T07:06:00;4.0;;;3.6;;
23252;SDS011;11795;47.054;15.408;2023-03-26T07:08:00;4.0;;;3.6;;
23252;SDS011;11795;47.054;15.408;2023-03-26T07:10:00;3.9;;;3.2;;
23252;SDS011;11795;47.054;15.408;2023-03-26T07:12:00;3.9;;;3.2;;
23252;SDS011;11795;47.054;15.408;2023-03-26T07:14:00;4.3;;;3.3;;
23252;SDS011;11795;47.054;15.408;2023-03-26T07:16:00;4.3;;;3.3;;
23252;SDS011;11795;47.054;15.408;2023-03-26T07:18:00;4.3;;;3.3;;
23252;SDS011;11795;47.054;15.408;2023-03-26T07:20:00;3.6;;;2.7;;
23252;SDS011;11795;47.054;15.408;2023-03-26T07:22:00;3.6;;;2.7;;
23252;SDS011;11795;47.054;15.408;2023-03-26T07:24:00;4.3;;;3.3;;
23252;SDS011;11795;47.054;15.408;2023-03-26T07:26:00;4.3;;;3.3;;
23252;SDS011;11795;47.054;15.408;2023-03-26T07:28:03;4.3;;;3.3;;
23252;SDS011;11795;47.054;15.408;2023-03-26T07:30:02;4.5;;;3.3;;
23252;SDS011;11795;47.054;15.408;2023-03-26T07:32:02;4.5;;;3.3;;
23252;SDS011;11795;47.054;15.408;2023-03-26T07:34:04;4.2;;;3.1;;
23252;SDS011;11795;47.054;15.408;2023-03-26T07:36:02;4.2;;;3.1;;
23252;SDS011;11795;47.054;15.408;2023-03-26T07:38:03;4.2;;;3.1;;
23252;SDS011;11795;47.054;15.408;2023-03-26T07:40:02;3.2;;;2.9;;
23252;SDS011;11795;47.054;15.408;2023-03-26T07:42:01;3.2;;;2.9;;
23252;SDS011;11795;47.054;15.408;2023-03-26T07:44:04;4.2;;;3.3;;
23252;SDS011;11795;47.054;15.408;2023-03-26T07:46:00;4.2;;;3.3;;
23252;SDS011;11795;47.054;15.408;2023-03-26T07:48:01;4.2;;;3.3;;
23252;SDS011;11795;47.054;15.408;2023-03-26T07:50:00;3.8;;;3.0;;
23252;SDS011;11795;47.054;15.408;2023-03-26T07:52:00;3.8;;;3.0;;
23252;SDS011;11795;47.054;15.408;2023-03-26T07:54:03;3.7;;;3.3;;
23252;SDS011;11795;47.054;15.408;2023-03-26T07:56:01;3.7;;;3.3;;
23252;SDS011;11795;47.054;15.408;2023-03-26T07:58:03;3.7;;;3.3;;
23252;SDS011;11795;47.054;15.408;2023-03-26T08:00:02;3.6;;;3.1;;
23252;SDS011;11795;47.054;15.408;2023-03-26T08:02:06;3.6;;;3.1;;
23252;SDS011;11795;47.054;15.408;2023-03-26T08:04:04;4.1;;;3.3;;
23252;SDS011;11795;47.054;15.408;2023-03-26T08:06:03;4.1;;;3.3;;
23252;SDS011;11795;47.054;15.408;2023-03-26T08:08:05;4.1;;;3.3;;
23252;SDS011;11795;47.054;15.408;2023-03-26T08:10:02;3.5;;;3.1;;
23252;SDS011;11795;47.054;15.408;2023-03-26T08:12:03;3.5;;;3.1;;
23252;SDS011;11795;47.054;15.408;2023-03-26T08:14:03;3.3;;;3.0;;
23252;SDS011;11795;47.054;15.408;2023-03-26T08:16:02;3.3;;;3.0;;
23252;SDS011;11795;47.054;15.408;2023-03-26T08:18:02;3.3;;;3.0;;
23252;SDS011;11795;47.054;15.408;2023-03-26T08:20:03;4.1;;;3.0;;
23252;SDS011;11795;47.054;15.408;2023-03-26T08:22:01;4.1;;;3.0;;
23252;SDS011;11795;47.054;15.408;2023-03-26T08:24:01;3.3;;;2.7;;
23252;SDS011;11795;47.054;15.408;2023-03-26T08:26:03;3.3;;;2.7;;
23252;SDS011;11795;47.054;15.408;2023-03-26T08:28:03;3.3;;;2.7;;
23252;SDS011;11795;47.054;15.408;2023-03-26T08:30:02;3.2;;;2.6;;
23252;SDS011;11795;47.054;15.408;2023-03-26T08:32:00;3.2;;;2.6;;
23252;SDS011;11795;47.054;15.408;2023-03-26T08:34:00;3.9;;;2.8;;
23252;SDS011;11795;47.054;15.408;2023-03-26T08:36:00;3.9;;;2.8;;
23252;SDS011;11795;47.054;15.408;2023-03-26T08:38:00;3.9;;;2.8;;
23252;SDS011;11795;47.054;15.408;2023-03-26T08:40:00;3.5;;;3.2;;
23252;SDS011;11795;47.054;15.408;2023-03-26T08:42:11;3.5;;;3.2;;
23252;SDS011;11795;47.054;15.408;2023-03-26T08:44:04;3.6;;;3.0;;
23252;SDS011;11795;47.054;15.408;2023-03-26T08:48:09;3.6;;;3.0;;
23252;SDS011;11795;47.054;15.408;2023-03-26T08:52:08;5.2;;;2.7;;
23252;SDS011;11795;47.054;15.408;2023-03-26T08:54:09;4.4;;;3.5;;
23252;SDS011;11795;47.054;15.408;2023-03-26T08:56:00;4.4;;;3.5;;
23252;SDS011;11795;47.054;15.408;2023-03-26T08:58:06;4.4;;;3.5;;
23252;SDS011;11795;47.054;15.408;2023-03-26T09:04:04;5.1;;;3.3;;
23252;SDS011;11795;47.054;15.408;2023-03-26T09:06:08;5.1;;;3.3;;
23252;SDS011;11795;47.054;15.408;2023-03-26T09:08:09;5.1;;;3.3;;
23252;SDS011;11795;47.054;15.408;2023-03-26T09:10:07;4.2;;;3.6;;
23252;SDS011;11795;47.054;15.408;2023-03-26T09:24:05;3.9;;;3.0;;
23252;SDS011;11795;47.054;15.408;2023-03-26T09:26:03;3.9;;;3.0;;
23252;SDS011;11795;47.054;15.408;2023-03-26T09:28:07;3.9;;;3.0;;
23252;SDS011;11795;47.054;15.408;2023-03-26T09:30:09;3.0;;;2.6;;
23252;SDS011;11795;47.054;15.408;2023-03-26T09:32:05;3.0;;;2.6;;
23252;SDS011;11795;47.054;15.408;2023-03-26T09:34:03;3.0;;;2.6;;
23252;SDS011;11795;47.054;15.408;2023-03-26T09:36:06;3.8;;;2.7;;
23252;SDS011;11795;47.054;15.408;2023-03-26T09:38:06;3.8;;;2.7;;
23252;SDS011;11795;47.054;15.408;2023-03-26T09:40:03;3.4;;;2.5;;
23252;SDS011;11795;47.054;15.408;2023-03-26T09:42:06;3.4;;;2.5;;
23252;SDS011;11795;47.054;15.408;2023-03-26T09:46:02;3.6;;;2.4;;
23252;SDS011;11795;47.054;15.408;2023-03-26T09:48:11;3.6;;;2.4;;
23252;SDS011;11795;47.054;15.408;2023-03-26T09:50:07;2.8;;;2.4;;
23252;SDS011;11795;47.054;15.408;2023-03-26T09:52:02;2.8;;;2.4;;
23252;SDS011;11795;47.054;15.408;2023-03-26T09:54:04;2.8;;;2.4;;
23252;SDS011;11795;47.054;15.408;2023-03-26T09:56:03;3.4;;;2.2;;
23252;SDS011;11795;47.054;15.408;2023-03-26T10:00:02;3.4;;;2.5;;
23252;SDS011;11795;47.054;15.408;2023-03-26T10:02:03;3.4;;;2.5;;
23252;SDS011;11795;47.054;15.408;2023-03-26T10:04:05;3.4;;;2.5;;
23252;SDS011;11795;47.054;15.408;2023-03-26T10:06:04;3.7;;;2.9;;
23252;SDS011;11795;47.054;15.408;2023-03-26T10:08:04;3.7;;;2.9;;
23252;SDS011;11795;47.054;15.408;2023-03-26T10:10:00;3.4;;;2.8;;
23252;SDS011;11795;47.054;15.408;2023-03-26T10:12:05;3.4;;;2.8;;
23252;SDS011;11795;47.054;15.408;2023-03-26T10:14:03;3.4;;;2.8;;
23252;SDS011;11795;47.054;15.408;2023-03-26T10:16:04;3.6;;;2.8;;
23252;SDS011;11795;47.054;15.408;2023-03-26T10:18:05;3.6;;;2.8;;
23252;SDS011;11795;47.054;15.408;2023-03-26T10:20:05;3.5;;;2.9;;
23252;SDS011;11795;47.054;15.408;2023-03-26T10:22:01;3.5;;;2.9;;
23252;SDS011;11795;47.054;15.408;2023-03-26T10:24:04;3.5;;;2.9;;
23252;SDS011;11795;47.054;15.408;2023-03-26T10:26:04;2.9;;;2.6;;
23252;SDS011;11795;47.054;15.408;2023-03-26T10:28:06;2.9;;;2.6;;
23252;SDS011;11795;47.054;15.408;2023-03-26T10:32:04;4.9;;;3.0;;
23252;SDS011;11795;47.054;15.408;2023-03-26T10:34:03;4.9;;;3.0;;
23252;SDS011;11795;47.054;15.408;2023-03-26T10:36:07;3.7;;;2.9;;
23252;SDS011;11795;47.054;15.408;2023-03-26T10:38:05;3.7;;;2.9;;
23252;SDS011;11795;47.054;15.408;2023-03-26T10:40:06;3.9;;;3.3;;
23252;SDS011;11795;47.054;15.408;2023-03-26T10:42:04;3.9;;;3.3;;
23252;SDS011;11795;47.054;15.408;2023-03-26T10:46:09;3.0;;;2.7;;
23252;SDS011;11795;47.054;15.408;2023-03-26T10:48:05;3.0;;;2.7;;
23252;SDS011;11795;47.054;15.408;2023-03-26T10:50:03;2.9;;;2.5;;
23252;SDS011;11795;47.054;15.408;2023-03-26T10:52:00;2.9;;;2.5;;
23252;SDS011;11795;47.054;15.408;2023-03-26T10:54:02;2.9;;;2.5;;
23252;SDS011;11795;47.054;15.408;2023-03-26T10:56:04;3.9;;;3.0;;
23252;SDS011;11795;47.054;15.408;2023-03-26T10:58:02;3.9;;;3.0;;
23252;SDS011;11795;47.054;15.408;2023-03-26T11:00:04;2.6;;;2.4;;
23252;SDS011;11795;47.054;15.408;2023-03-26T11:02:04;2.6;;;2.4;;
23252;SDS011;11795;47.054;15.408;2023-03-26T11:04:02;2.6;;;2.4;;
23252;SDS011;11795;47.054;15.408;2023-03-26T11:06:02;2.7;;;2.0;;
23252;SDS011;11795;47.054;15.408;2023-03-26T11:08:01;2.7;;;2.0;;
23252;SDS011;11795;47.054;15.408;2023-03-26T11:10:01;2.9;;;2.3;;
23252;SDS011;11795;47.054;15.408;2023-03-26T11:12:01;2.9;;;2.3;;
23252;SDS011;11795;47.054;15.408;2023-03-26T11:14:02;2.9;;;2.3;;
23252;SDS011;11795;47.054;15.408;2023-03-26T11:16:01;3.2;;;2.4;;
23252;SDS011;11795;47.054;15.408;2023-03-26T11:18:04;3.2;;;2.4;;
23252;SDS011;11795;47.054;15.408;2023-03-26T11:20:02;2.4;;;2.0;;
23252;SDS011;11795;47.054;15.408;2023-03-26T11:22:02;2.4;;;2.0;;
23252;SDS011;11795;47.054;15.408;2023-03-26T11:24:04;2.4;;;2.0;;
23252;SDS011;11795;47.054;15.408;2023-03-26T11:26:04;2.0;;;1.9;;
23252;SDS011;11795;47.054;15.408;2023-03-26T11:28:04;2.0;;;1.9;;
23252;SDS011;11795;47.054;15.408;2023-03-26T11:30:02;2.3;;;2.1;;
23252;SDS011;11795;47.054;15.408;2023-03-26T11:32:02;2.3;;;2.1;;
23252;SDS011;11795;47.054;15.408;2023-03-26T11:34:02;2.3;;;2.1;;
23252;SDS011;11795;47.054;15.408;2023-03-26T11:36:01;2.3;;;2.1;;
23252;SDS011;11795;47.054;15.408;2023-03-26T11:38:02;2.3;;;2.1;;
23252;SDS011;11795;47.054;15.408;2023-03-26T11:40:01;3.9;;;2.1;;
23252;SDS011;11795;47.054;15.408;2023-03-26T11:42:03;3.9;;;2.1;;
23252;SDS011;11795;47.054;15.408;2023-03-26T11:44:02;3.9;;;2.1;;
23252;SDS011;11795;47.054;15.408;2023-03-26T11:46:00;2.2;;;2.0;;
23252;SDS011;11795;47.054;15.408;2023-03-26T11:48:02;2.2;;;2.0;;
23252;SDS011;11795;47.054;15.408;2023-03-26T11:50:00;2.8;;;2.6;;
23252;SDS011;11795;47.054;15.408;2023-03-26T11:52:02;2.8;;;2.6;;
23252;SDS011;11795;47.054;15.408;2023-03-26T11:54:00;2.8;;;2.6;;
23252;SDS011;11795;47.054;15.408;2023-03-26T11:56:02;2.7;;;2.4;;
23252;SDS011;11795;47.054;15.408;2023-03-26T11:58:00;2.7;;;2.4;;
23252;SDS011;11795;47.054;15.408;2023-03-26T12:00:04;3.2;;;2.5;;
23252;SDS011;11795;47.054;15.408;2023-03-26T12:04:02;3.2;;;2.5;;
23252;SDS011;11795;47.054;15.408;2023-03-26T12:06:02;3.6;;;2.6;;
23252;SDS011;11795;47.054;15.408;2023-03-26T12:08:01;3.6;;;2.6;;
23252;SDS011;11795;47.054;15.408;2023-03-26T12:10:01;2.7;;;2.5;;
23252;SDS011;11795;47.054;15.408;2023-03-26T12:12:01;2.7;;;2.5;;
23252;SDS011;11795;47.054;15.408;2023-03-26T12:14:01;2.7;;;2.5;;
23252;SDS011;11795;47.054;15.408;2023-03-26T12:16:03;3.4;;;2.4;;
23252;SDS011;11795;47.054;15.408;2023-03-26T12:18:18;3.4;;;2.4;;
23252;SDS011;11795;47.054;15.408;2023-03-26T12:20:02;3.3;;;2.3;;
23252;SDS011;11795;47.054;15.408;2023-03-26T12:22:00;3.3;;;2.3;;
23252;SDS011;11795;47.054;15.408;2023-03-26T12:24:01;3.3;;;2.3;;
23252;SDS011;11795;47.054;15.408;2023-03-26T12:26:03;2.7;;;2.2;;
23252;SDS011;11795;47.054;15.408;2023-03-26T12:28:02;2.7;;;2.2;;
23252;SDS011;11795;47.054;15.408;2023-03-26T12:30:08;2.8;;;2.3;;
23252;SDS011;11795;47.054;15.408;2023-03-26T12:32:03;2.8;;;2.3;;
23252;SDS011;11795;47.054;15.408;2023-03-26T12:34:04;2.8;;;2.3;;
23252;SDS011;11795;47.054;15.408;2023-03-26T12:40:05;2.8;;;2.5;;
23252;SDS011;11795;47.054;15.408;2023-03-26T12:42:01;2.8;;;2.5;;
23252;SDS011;11795;47.054;15.408;2023-03-26T12:46:00;2.9;;;2.7;;
23252;SDS011;11795;47.054;15.408;2023-03-26T12:48:01;2.9;;;2.7;;
23252;SDS011;11795;47.054;15.408;2023-03-26T12:50:01;3.2;;;2.6;;